Time;durP1;ratioP1;P1;durP2;ratioP2;P2;SDS_P1;SDS_P2;PMS_P1;PMS_P2;Temp;Humidity;BMP_temperature;BMP_pressure;BME280_temperature;BME280_humidity;BME280_pressure;Samples;Min_cycle;Max_cycle;Signal;HPM_P1;HPM_P2
2022/06/21 00:00:29;;;;;;;6.50;4.40;;;14.00;99.90;;;;;;5030280;28;20028;-49
2022/06/21 00:03:17;;;;;;;10.00;4.53;;;13.90;99.90;;;;;;5030917;28;20387;-48
2022/06/21 00:05:45;;;;;;;5.80;3.90;;;13.90;99.90;;;;;;5023862;28;20034;-47
2022/06/21 00:08:21;;;;;;;5.05;4.28;;;13.90;99.90;;;;;;5011025;28;20022;-48
2022/06/21 00:10:47;;;;;;;7.68;3.88;;;13.90;99.90;;;;;;5013171;28;20076;-46
2022/06/21 00:13:29;;;;;;;7.20;5.70;;;13.90;99.90;;;;;;5021983;28;20018;-46
2022/06/21 00:15:58;;;;;;;7.40;4.35;;;13.80;99.90;;;;;;5022341;28;20029;-48
2022/06/21 00:18:25;;;;;;;6.70;6.05;;;13.80;99.90;;;;;;5021813;28;20032;-47
2022/06/21 00:20:52;;;;;;;7.68;6.03;;;13.80;99.90;;;;;;5022766;28;20083;-50
2022/06/21 00:23:27;;;;;;;5.82;4.22;;;13.70;99.90;;;;;;5023523;28;20037;-50
2022/06/21 00:25:53;;;;;;;6.93;5.03;;;13.70;99.90;;;;;;5023254;28;20373;-48
2022/06/21 00:28:19;;;;;;;10.15;5.25;;;13.70;99.90;;;;;;5021487;28;20032;-47
2022/06/21 00:30:47;;;;;;;5.68;4.80;;;13.70;99.90;;;;;;5023513;28;20025;-47
2022/06/21 00:33:15;;;;;;;11.85;5.65;;;13.70;99.90;;;;;;5023075;28;20112;-45
2022/06/21 00:35:42;;;;;;;4.65;4.22;;;13.70;99.90;;;;;;5024208;22;20042;-51
2022/06/21 00:38:25;;;;;;;6.88;4.60;;;13.70;99.90;;;;;;5010339;28;20117;-48
2022/06/21 00:40:50;;;;;;;4.97;4.43;;;13.70;99.90;;;;;;5011868;28;20022;-50
2022/06/21 00:43:24;;;;;;;7.07;5.25;;;13.60;99.90;;;;;;5012886;28;20022;-45
2022/06/21 00:45:51;;;;;;;5.65;4.18;;;13.60;99.90;;;;;;5013141;28;20484;-49
2022/06/21 00:48:37;;;;;;;5.80;4.10;;;13.60;99.90;;;;;;5013543;28;20037;-47
2022/06/21 00:51:14;;;;;;;4.72;4.32;;;13.50;99.90;;;;;;5013434;28;20113;-46
2022/06/21 00:53:53;;;;;;;6.15;4.30;;;13.50;99.90;;;;;;5013478;28;20485;-45
2022/06/21 00:56:28;;;;;;;4.38;3.80;;;13.50;99.90;;;;;;5013805;28;20050;-43
2022/06/21 00:58:53;;;;;;;4.73;4.30;;;13.40;99.90;;;;;;5013305;28;20033;-49
2022/06/21 01:01:29;;;;;;;5.68;4.60;;;13.40;99.90;;;;;;5013548;28;20649;-46
2022/06/21 01:03:56;;;;;;;;;;;13.40;99.90;;;;;;5014097;28;20486;-49
2022/06/21 01:06:27;;;;;;;8.50;4.93;;;13.40;99.90;;;;;;5013066;28;19912;-46
2022/06/21 01:09:01;;;;;;;4.50;4.20;;;13.30;99.90;;;;;;5011764;28;20030;-46
2022/06/21 01:11:32;;;;;;;8.75;4.78;;;13.30;99.90;;;;;;5013713;28;20041;-44
2022/06/21 01:13:59;;;;;;;8.90;4.43;;;13.20;99.90;;;;;;5013270;28;20037;-45
2022/06/21 01:16:28;;;;;;;7.50;4.88;;;13.20;99.90;;;;;;5013337;28;20530;-48
2022/06/21 01:18:54;;;;;;;10.07;5.80;;;13.20;99.90;;;;;;5012878;28;20060;-43
2022/06/21 01:21:20;;;;;;;7.72;5.50;;;13.20;99.90;;;;;;5013217;28;20429;-47
2022/06/21 01:23:52;;;;;;;11.98;5.72;;;13.20;99.90;;;;;;5012874;28;20029;-50
2022/06/21 01:26:43;;;;;;;7.78;4.38;;;13.10;99.90;;;;;;5012847;28;20014;-48
2022/06/21 01:29:21;;;;;;;6.13;5.05;;;12.90;99.90;;;;;;5013188;28;20026;-43
2022/06/21 01:31:48;;;;;;;5.55;5.00;;;12.90;99.90;;;;;;5013264;28;20108;-49
2022/06/21 01:34:25;;;;;;;10.43;5.38;;;12.90;99.90;;;;;;5013078;28;20401;-45
2022/06/21 01:36:53;;;;;;;6.88;5.60;;;13.00;99.90;;;;;;5013166;28;20125;-50
2022/06/21 01:39:31;;;;;;;6.13;4.50;;;13.10;99.90;;;;;;5013133;28;20506;-49
2022/06/21 01:42:17;;;;;;;8.07;4.85;;;13.10;99.90;;;;;;5013341;28;20113;-50
2022/06/21 01:44:50;;;;;;;7.13;4.80;;;13.10;99.90;;;;;;5012946;28;20101;-49
2022/06/21 01:47:21;;;;;;;5.82;4.55;;;13.00;99.90;;;;;;5012651;28;20084;-45
2022/06/21 01:49:52;;;;;;;6.97;4.97;;;13.00;99.90;;;;;;5011682;28;20128;-52
2022/06/21 01:52:21;;;;;;;4.80;4.38;;;13.00;99.90;;;;;;5012798;28;20021;-48
2022/06/21 01:54:54;;;;;;;6.53;4.70;;;12.90;99.90;;;;;;5012878;28;20042;-49
2022/06/21 01:57:20;;;;;;;5.35;4.22;;;12.90;99.90;;;;;;5012690;28;20414;-48
2022/06/21 01:59:50;;;;;;;8.82;4.53;;;12.90;99.90;;;;;;5012824;28;20492;-48
2022/06/21 02:02:23;;;;;;;4.47;3.97;;;12.90;99.90;;;;;;5012772;28;20032;-50
2022/06/21 02:04:56;;;;;;;4.82;4.35;;;12.80;99.90;;;;;;5012924;28;20018;-50
2022/06/21 02:07:28;;;;;;;5.80;4.65;;;12.80;99.90;;;;;;5012495;28;20022;-50
2022/06/21 02:10:22;;;;;;;5.70;4.95;;;12.80;99.90;;;;;;5013104;28;20097;-43
2022/06/21 02:13:12;;;;;;;6.22;4.90;;;12.70;99.90;;;;;;5013329;28;20117;-44
2022/06/21 02:15:48;;;;;;;6.55;5.05;;;12.70;99.90;;;;;;5012569;28;20029;-46
2022/06/21 02:18:16;;;;;;;9.27;5.90;;;12.70;99.90;;;;;;5012674;28;20041;-47
2022/06/21 02:20:48;;;;;;;6.75;4.70;;;12.60;99.90;;;;;;5013119;28;20029;-49
2022/06/21 02:23:16;;;;;;;8.73;5.47;;;12.60;99.90;;;;;;5011704;28;20026;-47
2022/06/21 02:25:43;;;;;;;6.43;5.47;;;12.50;99.90;;;;;;5011522;28;20061;-47
2022/06/21 02:28:12;;;;;;;8.55;5.10;;;12.50;99.90;;;;;;5012446;28;20021;-50
2022/06/21 02:30:40;;;;;;;6.40;5.07;;;12.50;99.90;;;;;;5013043;28;20104;-47
2022/06/21 02:33:12;;;;;;;5.38;4.45;;;12.40;99.90;;;;;;5012882;28;20068;-45
2022/06/21 02:36:01;;;;;;;6.43;5.00;;;12.50;99.90;;;;;;5013023;28;20046;-47
2022/06/21 02:38:37;;;;;;;6.85;4.90;;;12.50;99.90;;;;;;5012791;28;20040;-47
2022/06/21 02:41:11;;;;;;;9.48;5.75;;;12.50;99.90;;;;;;5011440;28;20486;-46
2022/06/21 02:43:40;;;;;;;5.40;4.90;;;12.50;99.90;;;;;;5012965;28;20560;-48
2022/06/21 02:46:14;;;;;;;6.47;4.72;;;12.50;99.90;;;;;;5012599;28;20029;-49
2022/06/21 02:49:07;;;;;;;5.20;4.63;;;12.50;99.90;;;;;;5012380;28;20499;-50
2022/06/21 02:51:38;;;;;;;11.45;4.88;;;12.50;99.90;;;;;;5011286;28;20042;-46
2022/06/21 02:54:24;;;;;;;8.32;6.93;;;12.50;99.90;;;;;;5011603;28;20498;-46
2022/06/21 02:57:02;;;;;;;8.35;4.93;;;12.50;99.90;;;;;;5011419;28;20116;-46
2022/06/21 02:59:31;;;;;;;5.78;4.97;;;12.40;99.90;;;;;;5011523;28;20021;-46
2022/06/21 03:02:00;;;;;;;8.15;4.40;;;12.40;99.90;;;;;;5014196;28;20563;-49
2022/06/21 03:04:37;;;;;;;6.22;4.90;;;12.40;99.90;;;;;;5015292;28;20033;-46
2022/06/21 03:07:03;;;;;;;5.13;4.63;;;12.40;99.90;;;;;;5015155;28;20022;-47
2022/06/21 03:09:30;;;;;;;5.85;5.15;;;12.30;99.90;;;;;;5014963;28;20058;-49
2022/06/21 03:12:00;;;;;;;8.95;5.63;;;12.30;99.90;;;;;;5015031;28;20030;-50
2022/06/21 03:14:29;;;;;;;5.32;4.82;;;12.30;99.90;;;;;;5014955;28;20076;-47
2022/06/21 03:16:56;;;;;;;8.05;5.65;;;12.20;99.90;;;;;;5013087;28;20022;-49
2022/06/21 03:19:30;;;;;;;8.55;6.07;;;12.20;99.90;;;;;;5014682;28;20048;-48
2022/06/21 03:21:56;;;;;;;9.40;5.70;;;12.20;99.90;;;;;;5014678;28;20022;-48
2022/06/21 03:24:25;;;;;;;9.98;6.10;;;12.20;99.90;;;;;;5014256;28;20482;-48
2022/06/21 03:26:59;;;;;;;11.65;7.43;;;12.10;99.90;;;;;;5014483;28;20033;-49
2022/06/21 03:29:25;;;;;;;6.57;5.75;;;12.10;99.90;;;;;;5014531;28;20030;-48
2022/06/21 03:31:52;;;;;;;7.85;5.55;;;12.00;99.90;;;;;;5014511;28;20034;-48
2022/06/21 03:34:20;;;;;;;8.10;6.57;;;12.00;99.90;;;;;;5014729;28;20445;-48
2022/06/21 03:36:47;;;;;;;7.25;5.63;;;12.00;99.90;;;;;;5014208;28;20410;-46
2022/06/21 03:39:18;;;;;;;11.05;5.70;;;11.90;99.90;;;;;;5014260;28;20030;-49
2022/06/21 03:41:45;;;;;;;7.18;5.80;;;11.80;99.90;;;;;;5014340;28;20250;-46
2022/06/21 03:44:33;;;;;;;6.28;5.30;;;11.70;99.90;;;;;;5014166;28;20014;-47
2022/06/21 03:47:06;;;;;;;7.60;5.38;;;11.60;99.90;;;;;;5013962;28;20105;-49
2022/06/21 03:49:55;;;;;;;8.60;4.95;;;11.60;99.90;;;;;;5014269;28;20018;-50
2022/06/21 03:52:43;;;;;;;6.13;5.40;;;11.50;99.90;;;;;;5013130;28;20489;-49
2022/06/21 03:55:17;;;;;;;9.40;6.40;;;11.50;99.90;;;;;;5013933;28;20034;-50
2022/06/21 03:58:06;;;;;;;8.57;5.68;;;11.60;99.90;;;;;;5013859;28;20032;-46
2022/06/21 04:00:39;;;;;;;9.63;5.13;;;11.70;99.90;;;;;;5013952;28;20053;-50
2022/06/21 04:03:26;;;;;;;9.15;7.13;;;11.70;99.90;;;;;;5014046;28;20018;-49
2022/06/21 04:06:02;;;;;;;6.32;5.57;;;11.90;99.90;;;;;;5013867;28;20022;-46
2022/06/21 04:08:48;;;;;;;7.35;5.38;;;11.90;99.90;;;;;;5013711;28;20405;-48
2022/06/21 04:11:31;;;;;;;7.88;5.65;;;11.90;99.90;;;;;;5013747;28;20121;-47
2022/06/21 04:13:59;;;;;;;8.32;5.43;;;12.00;99.90;;;;;;5013246;28;20117;-47
2022/06/21 04:16:41;;;;;;;8.43;6.25;;;12.10;99.90;;;;;;5013412;28;20517;-48
2022/06/21 04:19:13;;;;;;;8.98;5.93;;;12.20;99.90;;;;;;5013523;28;20041;-49
2022/06/21 04:21:49;;;;;;;13.20;6.65;;;12.20;99.90;;;;;;5013277;28;20033;-47
2022/06/21 04:24:39;;;;;;;9.50;6.28;;;12.30;99.90;;;;;;5013225;28;20088;-43
2022/06/21 04:27:14;;;;;;;10.50;6.55;;;12.30;99.90;;;;;;5013187;28;20033;-44
2022/06/21 04:29:52;;;;;;;;;;;12.40;99.90;;;;;;5013857;28;20543;-50
2022/06/21 04:32:46;;;;;;;9.80;6.68;;;12.50;99.90;;;;;;5013585;28;19906;-49
2022/06/21 04:35:25;;;;;;;7.53;6.63;;;12.70;99.90;;;;;;5013064;28;20037;-51
2022/06/21 04:38:01;;;;;;;10.05;7.90;;;12.90;99.90;;;;;;5013010;28;20509;-52
2022/06/21 04:40:52;;;;;;;7.28;6.53;;;13.10;99.90;;;;;;5013210;28;20045;-50
2022/06/21 04:43:29;;;;;;;9.98;6.95;;;13.20;99.90;;;;;;5009801;28;20056;-50
2022/06/21 04:46:00;;;;;;;7.47;6.63;;;13.20;99.90;;;;;;4993397;28;20038;-48
2022/06/21 04:48:43;;;;;;;7.90;7.10;;;13.30;99.90;;;;;;4995286;28;20034;-48
2022/06/21 04:51:19;;;;;;;9.20;6.85;;;13.50;99.90;;;;;;5012600;28;20064;-50
2022/06/21 04:54:24;;;;;;;10.10;6.43;;;13.60;99.90;;;;;;5012184;28;20018;-49
2022/06/21 04:57:15;;;;;;;10.85;6.43;;;13.80;99.90;;;;;;4999775;28;20030;-53
2022/06/21 04:59:54;;;;;;;11.90;6.75;;;13.90;99.90;;;;;;5011850;28;20104;-53
2022/06/21 05:02:29;;;;;;;12.85;7.25;;;14.10;99.90;;;;;;5012443;28;20037;-54
2022/06/21 05:05:17;;;;;;;7.13;5.82;;;14.70;99.90;;;;;;5012415;28;20030;-53
2022/06/21 05:07:46;;;;;;;5.95;5.30;;;15.40;99.90;;;;;;5012628;28;20498;-50
2022/06/21 05:10:19;;;;;;;8.02;5.43;;;16.00;99.90;;;;;;5011869;28;20064;-53
2022/06/21 05:12:47;;;;;;;6.15;4.78;;;16.70;99.90;;;;;;5012213;28;20502;-52
2022/06/21 05:15:26;;;;;;;6.35;5.07;;;17.20;99.90;;;;;;5012449;28;20076;-52
2022/06/21 05:17:59;;;;;;;4.65;4.22;;;17.70;99.90;;;;;;5012148;28;20096;-54
2022/06/21 05:20:29;;;;;;;5.93;5.35;;;18.10;99.90;;;;;;5012499;28;20060;-51
2022/06/21 05:23:01;;;;;;;6.00;4.70;;;18.50;99.20;;;;;;5017648;28;20030;-49
2022/06/21 05:25:31;;;;;;;6.70;4.90;;;18.90;98.20;;;;;;5009974;28;20505;-52
2022/06/21 05:28:19;;;;;;;8.65;4.88;;;19.10;97.60;;;;;;5011916;28;20478;-53
2022/06/21 05:30:51;;;;;;;5.20;4.80;;;19.40;97.00;;;;;;5011498;28;20541;-47
2022/06/21 05:33:29;;;;;;;4.85;4.22;;;19.60;97.00;;;;;;5011889;28;20026;-52
2022/06/21 05:35:54;;;;;;;8.15;4.25;;;20.00;96.50;;;;;;5012004;28;20026;-49
2022/06/21 05:38:32;;;;;;;4.85;3.88;;;20.60;96.00;;;;;;5011791;28;20478;-49
2022/06/21 05:41:31;;;;;;;6.20;3.88;;;21.60;94.40;;;;;;5012215;28;20030;-50
2022/06/21 05:44:00;;;;;;;5.95;3.80;;;22.40;92.50;;;;;;5011954;28;20420;-48
2022/06/21 05:46:29;;;;;;;4.85;3.78;;;22.80;91.60;;;;;;5011957;28;20018;-52
2022/06/21 05:48:56;;;;;;;8.35;4.25;;;22.80;90.60;;;;;;5011866;28;20018;-52
2022/06/21 05:51:27;;;;;;;5.30;3.70;;;23.00;90.50;;;;;;5011947;28;20521;-49
2022/06/21 05:54:08;;;;;;;3.92;3.30;;;23.20;89.70;;;;;;5011932;28;20552;-47
2022/06/21 05:56:35;;;;;;;8.73;3.65;;;23.10;89.60;;;;;;5011928;28;20045;-48
2022/06/21 05:59:05;;;;;;;6.38;3.58;;;23.30;88.50;;;;;;5010703;28;20505;-49
2022/06/21 06:01:51;;;;;;;7.45;3.80;;;23.30;88.90;;;;;;5012219;28;20406;-52
2022/06/21 06:04:33;;;;;;;11.57;3.92;;;23.00;89.20;;;;;;5012039;28;20018;-53
2022/06/21 06:07:01;;;;;;;10.88;3.00;;;23.10;89.70;;;;;;5011510;28;20036;-54
2022/06/21 06:09:30;;;;;;;6.28;4.00;;;23.30;90.10;;;;;;5011912;28;20022;-51
2022/06/21 06:12:01;;;;;;;5.40;3.80;;;23.50;88.10;;;;;;5012075;28;20037;-52
2022/06/21 06:14:37;;;;;;;6.53;3.80;;;23.40;88.80;;;;;;5011728;28;20104;-51
2022/06/21 06:17:23;;;;;;;8.85;4.18;;;23.20;89.40;;;;;;5011309;28;20036;-51
2022/06/21 06:20:11;;;;;;;11.98;4.60;;;22.90;90.00;;;;;;5012093;28;20586;-49
2022/06/21 06:22:44;;;;;;;5.80;3.72;;;22.80;90.30;;;;;;5011635;28;20070;-48
2022/06/21 06:25:33;;;;;;;8.30;3.80;;;22.90;90.30;;;;;;5010436;28;20021;-53
2022/06/21 06:28:28;;;;;;;7.07;4.53;;;23.10;89.40;;;;;;5011266;28;20022;-53
2022/06/21 06:31:05;;;;;;;13.50;4.05;;;23.70;88.00;;;;;;5009997;28;20034;-51
2022/06/21 06:33:41;;;;;;;7.22;3.25;;;23.70;87.90;;;;;;5011551;28;20118;-48
2022/06/21 06:38:37;;;;;;;11.80;3.05;;;25.60;84.00;;;;;;5012110;28;20057;-51
2022/06/21 06:41:11;;;;;;;5.18;3.05;;;26.00;82.00;;;;;;4997775;28;20173;-48
2022/06/21 06:43:59;;;;;;;6.97;3.20;;;26.40;80.30;;;;;;5015269;28;20022;-51
2022/06/21 06:46:34;;;;;;;3.65;3.20;;;26.20;79.10;;;;;;5013956;28;20018;-50
2022/06/21 06:49:16;;;;;;;5.38;3.03;;;25.80;80.10;;;;;;5014955;28;20018;-50
2022/06/21 06:52:05;;;;;;;8.32;2.97;;;26.10;79.50;;;;;;5015304;28;20105;-49
2022/06/21 06:55:14;;;;;;;4.65;2.60;;;26.30;79.20;;;;;;5002886;28;20476;-52
2022/06/21 06:57:43;;;;;;;3.55;2.55;;;26.60;77.70;;;;;;4932838;29;20036;-46
2022/06/21 07:00:20;;;;;;;2.80;2.30;;;27.00;76.40;;;;;;5004491;28;20508;-46
2022/06/21 07:02:53;;;;;;;7.78;2.38;;;27.30;76.00;;;;;;5015028;28;20022;-48
2022/06/21 07:05:47;;;;;;;5.90;2.50;;;27.30;75.90;;;;;;5014919;28;20464;-46
2022/06/21 07:08:50;;;;;;;13.25;8.02;;;27.60;74.20;;;;;;5014319;28;20033;-46
2022/06/21 07:11:47;;;;;;;20.45;15.05;;;28.10;74.10;;;;;;5014510;28;20568;-51
2022/06/21 07:14:20;;;;;;;4.13;2.47;;;28.90;71.50;;;;;;5007586;28;20029;-45
2022/06/21 07:16:50;;;;;;;6.75;2.63;;;28.80;71.50;;;;;;5001189;28;20026;-48
2022/06/21 07:19:16;;;;;;;4.50;2.38;;;29.10;70.40;;;;;;4995865;28;20030;-48
2022/06/21 07:21:42;;;;;;;3.83;2.28;;;29.00;69.90;;;;;;5014614;28;20029;-48
2022/06/21 07:24:16;;;;;;;4.10;2.10;;;28.80;70.50;;;;;;5014841;28;20032;-47
2022/06/21 07:26:49;;;;;;;7.45;2.42;;;28.60;71.00;;;;;;5013277;28;20022;-47
2022/06/21 07:29:32;;;;;;;7.18;2.60;;;28.60;70.60;;;;;;5002952;28;20124;-45
2022/06/21 07:32:10;;;;;;;4.15;3.17;;;28.80;70.30;;;;;;5014800;28;20403;-51
2022/06/21 07:34:45;;;;;;;8.05;2.75;;;29.10;68.70;;;;;;5014613;28;20038;-50
2022/06/21 07:37:28;;;;;;;4.78;2.33;;;29.20;69.20;;;;;;5013670;28;20600;-48
2022/06/21 07:40:04;;;;;;;7.45;2.65;;;29.40;68.60;;;;;;5009409;28;20033;-47
2022/06/21 07:43:08;;;;;;;5.30;2.05;;;29.70;67.10;;;;;;4997556;28;20081;-42
2022/06/21 07:45:49;;;;;;;3.78;2.58;;;29.90;67.80;;;;;;4939342;28;20036;-46
2022/06/21 07:48:36;;;;;;;7.68;2.88;;;29.50;66.40;;;;;;4991512;28;20021;-47
2022/06/21 07:51:28;;;;;;;7.30;3.00;;;28.60;66.90;;;;;;4994018;28;20023;-46
2022/06/21 07:54:35;;;;;;;3.42;2.47;;;28.10;68.70;;;;;;4994423;28;20037;-47
2022/06/21 07:57:22;;;;;;;2.95;2.08;;;28.10;68.70;;;;;;4985808;28;20041;-45
2022/06/21 07:59:53;;;;;;;5.55;2.22;;;28.30;68.10;;;;;;4976965;28;20023;-47
2022/06/21 08:08:15;;;;;;;8.27;2.88;;;27.20;68.20;;;;;;4994777;28;20173;-47
2022/06/21 08:10:50;;;;;;;5.75;2.40;;;27.00;69.60;;;;;;4994563;28;20057;-46
2022/06/21 08:13:16;;;;;;;4.00;2.75;;;26.10;71.90;;;;;;4994599;28;20057;-45
2022/06/21 08:15:47;;;;;;;8.32;2.78;;;25.70;72.60;;;;;;4994495;28;20018;-45
2022/06/21 08:18:35;;;;;;;6.78;2.10;;;25.10;73.50;;;;;;4994172;28;20018;-46
2022/06/21 08:21:08;;;;;;;4.22;2.30;;;24.70;75.80;;;;;;4994093;28;20041;-45
2022/06/21 08:23:56;;;;;;;4.43;2.53;;;24.00;75.70;;;;;;4993958;28;20034;-45
2022/06/21 08:26:36;;;;;;;6.80;3.97;;;23.00;77.80;;;;;;4993945;28;20019;-45
2022/06/21 08:29:30;;;;;;;8.70;2.65;;;22.50;79.80;;;;;;4993879;28;20044;-45
2022/06/21 08:32:22;;;;;;;56.67;27.23;;;22.40;81.80;;;;;;4983495;28;20121;-44
2022/06/21 08:34:50;;;;;;;26.23;14.73;;;22.50;80.70;;;;;;4994151;28;20065;-45
2022/06/21 08:37:21;;;;;;;10.52;3.65;;;22.40;80.20;;;;;;4993692;28;20524;-45
2022/06/21 08:40:33;;;;;;;4.65;2.60;;;22.50;80.60;;;;;;4994084;28;20156;-45
2022/06/21 08:43:41;;;;;;;9.57;2.83;;;22.60;80.60;;;;;;4993826;28;20030;-46
2022/06/21 08:46:36;;;;;;;9.20;2.30;;;22.20;81.00;;;;;;4993925;28;20105;-46
2022/06/21 08:49:40;;;;;;;7.43;2.72;;;22.00;81.60;;;;;;4993796;28;20541;-47
2022/06/21 08:52:24;;;;;;;5.82;1.90;;;21.90;80.30;;;;;;4993399;28;20057;-45
2022/06/21 08:55:18;;;;;;;3.28;2.58;;;21.50;79.40;;;;;;4993225;28;20029;-45
2022/06/21 08:58:13;;;;;;;3.88;1.90;;;21.20;81.70;;;;;;4992970;28;20026;-46
2022/06/21 09:01:18;;;;;;;4.80;2.70;;;21.00;82.20;;;;;;4976081;28;20032;-48
2022/06/21 09:04:24;;;;;;;3.78;2.40;;;20.80;82.30;;;;;;4993310;28;20434;-48
2022/06/21 09:07:09;;;;;;;8.25;2.17;;;21.00;82.60;;;;;;4993020;28;20137;-49
2022/06/21 09:09:53;;;;;;;4.45;1.80;;;21.00;81.90;;;;;;4975628;28;20030;-46
2022/06/21 09:12:44;;;;;;;9.55;2.67;;;21.00;82.30;;;;;;4993279;28;20022;-51
2022/06/21 09:15:30;;;;;;;3.88;1.90;;;21.00;81.90;;;;;;4992991;28;20398;-48
2022/06/21 09:18:40;;;;;;;4.00;1.92;;;21.00;81.40;;;;;;4992939;28;20633;-48
2022/06/21 09:21:16;;;;;;;6.47;2.60;;;21.10;81.40;;;;;;4932496;29;20036;-46
2022/06/21 09:23:59;;;;;;;4.53;2.00;;;21.30;80.90;;;;;;4988364;28;20043;-45
2022/06/21 09:26:31;;;;;;;6.97;2.17;;;21.20;81.70;;;;;;4992977;28;20069;-45
2022/06/21 09:29:00;;;;;;;7.53;1.70;;;21.10;82.10;;;;;;4992535;28;20476;-44
2022/06/21 09:31:44;;;;;;;2.55;2.35;;;21.20;82.20;;;;;;4992842;28;20034;-47
2022/06/21 09:34:31;;;;;;;10.13;1.85;;;21.30;80.50;;;;;;4992359;28;20061;-45
2022/06/21 09:37:18;;;;;;;1.92;1.73;;;21.40;81.40;;;;;;4992470;28;20038;-44
2022/06/21 09:39:50;;;;;;;3.55;2.05;;;21.50;81.30;;;;;;4992519;28;20061;-44
2022/06/21 09:42:27;;;;;;;7.75;2.33;;;21.50;81.30;;;;;;4992590;28;20030;-45
2022/06/21 09:45:08;;;;;;;9.38;2.17;;;21.50;81.60;;;;;;4992407;28;20022;-48
2022/06/21 09:47:54;;;;;;;6.95;2.03;;;21.60;80.70;;;;;;4992368;28;20026;-47
2022/06/21 09:50:40;;;;;;;4.72;2.80;;;22.10;80.70;;;;;;4992304;28;20034;-48
2022/06/21 09:53:32;;;;;;;5.82;2.03;;;22.40;78.30;;;;;;4992411;28;20026;-45
2022/06/21 09:56:25;;;;;;;4.65;1.90;;;22.70;78.50;;;;;;4992273;28;20026;-46
2022/06/21 09:58:56;;;;;;;4.78;1.85;;;23.00;77.70;;;;;;4991904;28;20035;-48
2022/06/21 10:01:50;;;;;;;10.93;2.40;;;23.00;76.40;;;;;;4991863;28;20049;-48
2022/06/21 10:04:28;;;;;;;1.83;1.73;;;23.20;75.90;;;;;;4992233;28;20103;-46
2022/06/21 10:07:02;;;;;;;35.47;23.23;;;23.20;75.40;;;;;;4991879;28;20038;-44
2022/06/21 10:09:48;;;;;;;22.08;13.70;;;23.20;76.60;;;;;;4992282;28;20026;-45
2022/06/21 10:12:13;;;;;;;8.82;3.03;;;23.30;76.60;;;;;;4992036;28;20056;-47
2022/06/21 10:14:57;;;;;;;3.58;2.08;;;23.10;76.10;;;;;;4992149;28;20030;-48
2022/06/21 10:17:26;;;;;;;2.65;1.85;;;23.10;76.10;;;;;;4992022;28;20546;-47
2022/06/21 10:20:13;;;;;;;5.10;2.60;;;23.20;76.60;;;;;;4992075;28;20026;-44
2022/06/21 10:23:07;;;;;;;6.93;1.80;;;23.00;76.60;;;;;;4992075;28;20398;-46
2022/06/21 10:25:57;;;;;;;7.28;2.97;;;23.00;76.30;;;;;;4991790;28;20118;-47
2022/06/21 10:28:38;;;;;;;7.95;2.60;;;22.90;76.60;;;;;;4991798;28;20483;-45
2022/06/21 10:31:32;;;;;;;4.35;1.83;;;23.00;77.40;;;;;;4992039;28;20026;-47
2022/06/21 10:34:26;;;;;;;5.78;2.28;;;23.20;77.50;;;;;;4992055;28;20026;-45
2022/06/21 10:37:24;;;;;;;1.80;1.70;;;23.20;76.80;;;;;;4991387;28;20037;-46
2022/06/21 10:40:17;;;;;;;4.65;1.70;;;23.40;75.50;;;;;;4978645;28;20027;-47
2022/06/21 10:43:08;;;;;;;2.65;1.85;;;23.60;75.40;;;;;;4991851;28;20055;-46
2022/06/21 10:45:46;;;;;;;3.03;1.83;;;23.40;75.20;;;;;;4991971;28;20093;-45
2022/06/21 10:48:33;;;;;;;4.15;2.13;;;23.40;75.40;;;;;;4991610;28;20022;-49
2022/06/21 10:51:40;;;;;;;5.65;1.90;;;23.40;75.30;;;;;;4991941;28;20426;-45
2022/06/21 10:54:26;;;;;;;5.10;1.73;;;23.20;75.30;;;;;;4991960;28;20025;-46
2022/06/21 10:57:16;;;;;;;3.15;1.88;;;23.20;74.70;;;;;;4991155;28;20022;-48
2022/06/21 11:02:56;;;;;;;5.13;1.58;;;23.40;74.80;;;;;;4991725;28;20539;-46
2022/06/21 11:05:59;;;;;;;3.60;1.75;;;23.50;74.90;;;;;;4991498;28;20029;-45
2022/06/21 11:08:58;;;;;;;5.50;1.67;;;23.50;75.00;;;;;;4991301;28;20027;-46
2022/06/21 11:11:42;;;;;;;6.50;1.73;;;23.70;74.50;;;;;;4991472;28;20034;-45
2022/06/21 11:14:33;;;;;;;4.53;1.70;;;23.70;73.70;;;;;;4992303;28;20029;-49
2022/06/21 11:17:04;;;;;;;2.75;1.50;;;23.80;74.30;;;;;;4991128;28;20026;-47
2022/06/21 11:20:00;;;;;;;3.53;2.05;;;23.90;73.50;;;;;;4991512;28;20026;-46
2022/06/21 11:22:45;;;;;;;3.38;1.25;;;23.90;72.20;;;;;;4993510;28;20104;-49
2022/06/21 11:25:41;;;;;;;4.25;1.20;;;23.90;70.70;;;;;;4995148;28;20034;-48
2022/06/21 11:28:09;;;;;;;3.80;1.02;;;23.70;67.00;;;;;;4994702;28;20109;-46
2022/06/21 11:31:07;;;;;;;2.33;1.30;;;23.70;67.50;;;;;;4994869;28;20030;-48
2022/06/21 11:33:55;;;;;;;3.28;1.08;;;23.70;66.70;;;;;;4994827;28;20026;-45
2022/06/21 11:36:48;;;;;;;2.10;1.13;;;23.80;65.60;;;;;;4994102;28;20029;-47
2022/06/21 11:39:40;;;;;;;10.38;4.80;;;24.00;67.50;;;;;;4994720;28;20545;-46
2022/06/21 11:42:12;;;;;;;1.52;1.38;;;23.90;64.90;;;;;;4994495;28;20030;-47
2022/06/21 11:44:46;;;;;;;3.00;2.63;;;23.90;66.50;;;;;;4994697;28;20398;-44
2022/06/21 11:47:21;;;;;;;1.15;1.13;;;24.00;66.40;;;;;;4994255;28;20094;-44
2022/06/21 11:50:19;;;;;;;5.35;1.40;;;24.00;66.10;;;;;;4994813;28;20026;-45
2022/06/21 11:53:13;;;;;;;1.20;0.90;;;24.20;66.10;;;;;;4994555;28;20026;-49
2022/06/21 11:56:00;;;;;;;2.67;1.73;;;24.10;66.20;;;;;;4994554;28;20022;-47
2022/06/21 11:58:38;;;;;;;7.40;2.65;;;24.10;65.60;;;;;;4993521;28;20027;-47
2022/06/21 12:01:25;;;;;;;4.65;1.13;;;24.10;65.80;;;;;;4994647;28;20034;-50
2022/06/21 12:03:55;;;;;;;3.20;1.50;;;24.10;65.40;;;;;;4994465;28;20035;-48
2022/06/21 12:06:38;;;;;;;4.78;1.17;;;24.10;67.00;;;;;;4994199;28;20030;-47
2022/06/21 12:09:31;;;;;;;2.60;1.13;;;24.10;66.70;;;;;;4994119;28;20018;-47
2022/06/21 12:12:23;;;;;;;1.30;1.00;;;24.30;65.60;;;;;;4994215;28;20022;-46
2022/06/21 12:15:28;;;;;;;1.25;1.13;;;24.50;64.00;;;;;;4990722;28;20474;-49
2022/06/21 12:17:56;;;;;;;4.85;1.15;;;24.60;62.80;;;;;;4999664;28;20482;-47
2022/06/21 12:20:35;;;;;;;4.63;1.35;;;24.80;65.00;;;;;;5007619;28;20091;-48
2022/06/21 12:23:14;;;;;;;1.55;1.05;;;24.80;65.60;;;;;;5013087;28;20041;-44
2022/06/21 12:25:39;;;;;;;1.48;1.25;;;24.70;65.20;;;;;;5008253;28;20026;-47
2022/06/21 12:28:11;;;;;;;3.13;1.08;;;24.60;65.60;;;;;;5006873;28;20406;-47
2022/06/21 12:30:37;;;;;;;3.58;1.08;;;24.60;64.60;;;;;;5013238;28;20577;-47
2022/06/21 12:33:04;;;;;;;3.00;1.50;;;24.60;64.00;;;;;;5012772;28;20077;-49
2022/06/21 12:35:48;;;;;;;4.15;1.20;;;24.60;64.00;;;;;;5013178;28;20034;-48
2022/06/21 12:38:20;;;;;;;3.15;1.33;;;24.50;66.20;;;;;;5011676;28;20116;-44
2022/06/21 12:41:10;;;;;;;2.13;1.20;;;24.60;67.20;;;;;;5010785;28;20029;-47
2022/06/21 12:43:44;;;;;;;6.28;1.38;;;24.70;67.10;;;;;;5011165;28;20387;-45
2022/06/21 12:46:27;;;;;;;4.20;1.40;;;24.80;66.60;;;;;;5012957;28;20026;-48
2022/06/21 12:49:14;;;;;;;5.80;1.30;;;24.90;67.20;;;;;;5011794;28;20021;-48
2022/06/21 12:51:53;;;;;;;3.28;1.42;;;25.00;65.80;;;;;;5011969;28;20101;-45
2022/06/21 12:54:51;;;;;;;10.15;1.08;;;25.20;64.70;;;;;;5012850;28;20032;-45
2022/06/21 12:57:27;;;;;;;5.95;1.30;;;25.30;64.90;;;;;;5011419;28;20014;-45
2022/06/21 13:00:07;;;;;;;3.63;1.20;;;25.50;65.20;;;;;;5011782;28;20026;-44
2022/06/21 13:02:53;;;;;;;4.15;1.27;;;25.50;64.70;;;;;;5011929;28;20017;-47
2022/06/21 13:05:59;;;;;;;3.10;1.17;;;25.50;64.40;;;;;;5011703;28;20030;-45
2022/06/21 13:08:41;;;;;;;2.33;1.17;;;25.40;64.80;;;;;;5003400;28;20052;-48
2022/06/21 13:11:41;;;;;;;4.15;1.27;;;25.20;65.00;;;;;;5011694;28;20105;-46
2022/06/21 13:14:30;;;;;;;2.20;1.10;;;25.20;65.30;;;;;;5011569;28;20018;-45
2022/06/21 13:17:14;;;;;;;4.07;1.40;;;25.30;66.00;;;;;;5007160;28;20029;-47
2022/06/21 13:19:57;;;;;;;2.65;1.10;;;25.30;66.10;;;;;;5011439;28;20030;-43
2022/06/21 13:22:39;;;;;;;6.18;1.48;;;25.30;66.20;;;;;;5011562;28;20030;-49
2022/06/21 13:25:19;;;;;;;7.03;1.20;;;25.60;65.30;;;;;;4999837;28;20113;-47
2022/06/21 13:28:15;;;;;;;5.28;1.23;;;25.50;65.40;;;;;;4993664;28;20089;-47
2022/06/21 13:31:00;;;;;;;4.32;1.40;;;25.40;66.20;;;;;;5012513;28;20486;-47
2022/06/21 13:33:28;;;;;;;2.90;1.73;;;25.40;66.60;;;;;;5012384;28;20069;-45
2022/06/21 13:36:09;;;;;;;4.22;1.92;;;25.40;66.90;;;;;;5012278;28;20084;-47
2022/06/21 13:39:00;;;;;;;2.90;1.27;;;25.30;66.20;;;;;;5011948;28;20038;-47
2022/06/21 13:44:41;;;;;;;5.85;2.25;;;25.20;66.10;;;;;;4993746;28;20053;-44
2022/06/21 13:47:20;;;;;;;1.70;1.20;;;25.30;66.50;;;;;;4991386;28;20030;-45
2022/06/21 13:49:53;;;;;;;4.00;1.38;;;25.40;66.40;;;;;;4992349;28;20018;-48
2022/06/21 13:52:39;;;;;;;5.22;1.52;;;25.60;66.40;;;;;;4992283;28;20038;-46
2022/06/21 13:55:25;;;;;;;3.33;1.90;;;25.70;65.70;;;;;;4992547;28;20065;-49
2022/06/21 13:57:53;;;;;;;;;;;25.90;65.00;;;;;;4992473;28;20034;-49
2022/06/21 14:00:30;;;;;;;1.73;1.27;;;25.80;65.50;;;;;;4992696;28;20000;-47
2022/06/21 14:03:13;;;;;;;6.78;1.30;;;25.70;66.20;;;;;;4992322;28;20027;-46